createdAt,value
2023-01-02T00:02:01.075Z,4.85
2023-01-02T00:04:27.782Z,5.53
2023-01-02T00:06:54.398Z,4.40
2023-01-02T00:09:21.020Z,6.05
2023-01-02T00:11:47.597Z,5.03
2023-01-02T00:14:14.221Z,4.45
2023-01-02T00:16:40.922Z,4.80
2023-01-02T00:19:08.628Z,5.05
2023-01-02T00:21:35.578Z,4.95
2023-01-02T00:24:02.575Z,3.03
2023-01-02T00:26:30.258Z,2.95
2023-01-02T00:28:56.964Z,3.70
2023-01-02T00:31:23.817Z,4.88
2023-01-02T00:33:50.631Z,3.45
2023-01-02T00:36:17.630Z,4.15
2023-01-02T00:38:44.259Z,4.45
2023-01-02T00:41:10.881Z,3.95
2023-01-02T00:43:37.715Z,3.25
2023-01-02T00:46:09.436Z,3.65
2023-01-02T00:48:38.553Z,3.53
2023-01-02T00:51:05.299Z,3.55
2023-01-02T00:53:31.997Z,3.80
2023-01-02T00:55:58.641Z,3.45
2023-01-02T00:58:25.573Z,3.55
2023-01-02T01:00:52.300Z,2.88
2023-01-02T01:03:19.044Z,3.50
2023-01-02T01:05:45.650Z,3.88
2023-01-02T01:08:12.345Z,3.67
2023-01-02T01:10:39.488Z,3.30
2023-01-02T01:13:06.176Z,4.50
2023-01-02T01:15:33.522Z,4.38
2023-01-02T01:18:00.324Z,4.05
2023-01-02T01:20:27.027Z,5.60
2023-01-02T01:22:53.612Z,5.18
2023-01-02T01:25:20.303Z,5.18
2023-01-02T01:27:46.975Z,5.55
2023-01-02T01:30:13.777Z,5.90
2023-01-02T01:32:40.380Z,5.15
2023-01-02T01:35:07.585Z,5.65
2023-01-02T01:37:34.278Z,5.30
2023-01-02T01:40:00.871Z,6.05
2023-01-02T01:42:32.963Z,4.68
2023-01-02T01:44:59.631Z,4.97
2023-01-02T01:47:48.089Z,5.25
2023-01-02T01:50:24.523Z,5.50
2023-01-02T01:52:56.606Z,5.20
2023-01-02T01:55:26.289Z,6.40
2023-01-02T01:57:57.406Z,5.78
2023-01-02T02:00:24.020Z,6.68
2023-01-02T02:02:52.121Z,5.32
2023-01-02T02:05:21.647Z,5.80
2023-01-02T02:07:55.098Z,5.75
2023-01-02T02:10:21.699Z,4.90
2023-01-02T02:12:48.365Z,5.63
2023-01-02T02:15:17.438Z,6.00
2023-01-02T02:18:13.448Z,6.35
2023-01-02T02:21:00.567Z,6.18
2023-01-02T02:23:52.495Z,5.93
2023-01-02T02:26:41.237Z,6.75
2023-01-02T02:29:41.419Z,6.50
2023-01-02T02:32:20.425Z,6.35
2023-01-02T02:34:53.993Z,6.00
2023-01-02T02:37:27.292Z,7.00
2023-01-02T02:40:02.109Z,6.82
2023-01-02T02:42:45.712Z,7.13
2023-01-02T02:45:36.808Z,6.47
2023-01-02T02:48:30.964Z,6.93
2023-01-02T02:51:01.696Z,7.53
2023-01-02T02:53:32.947Z,8.35
2023-01-02T02:56:00.350Z,6.82
2023-01-02T02:58:26.945Z,7.60
2023-01-02T03:01:11.559Z,6.88
2023-01-02T03:03:38.362Z,7.60
2023-01-02T03:06:16.568Z,6.97
2023-01-02T03:11:45.889Z,7.60
2023-01-02T03:14:22.758Z,4.40
2023-01-02T03:16:50.846Z,10.68
2023-01-02T03:19:23.245Z,8.45
2023-01-02T03:22:12.631Z,7.38
2023-01-02T03:24:39.239Z,8.55
2023-01-02T03:27:08.435Z,7.70
2023-01-02T03:29:39.037Z,8.70
2023-01-02T03:32:07.527Z,7.68
2023-01-02T03:34:34.675Z,7.53
2023-01-02T03:37:04.246Z,7.25
2023-01-02T03:39:32.387Z,7.40
2023-01-02T03:42:01.029Z,6.50
2023-01-02T03:44:30.994Z,6.80
2023-01-02T03:47:03.440Z,6.57
2023-01-02T03:49:33.591Z,6.35
2023-01-02T03:52:00.254Z,6.43
2023-01-02T03:54:26.952Z,6.30
2023-01-02T03:59:49.417Z,6.53
2023-01-02T04:02:44.323Z,5.38
2023-01-02T04:05:15.730Z,5.38
2023-01-02T04:08:00.173Z,5.43
2023-01-02T04:10:27.330Z,5.32
2023-01-02T04:12:55.107Z,4.88
2023-01-02T04:15:24.115Z,5.70
2023-01-02T04:17:56.343Z,4.90
2023-01-02T04:20:25.596Z,5.22
2023-01-02T04:23:00.302Z,4.72
2023-01-02T04:25:30.455Z,5.43
2023-01-02T04:28:02.391Z,4.63
2023-01-02T04:30:29.417Z,5.65
2023-01-02T04:32:56.112Z,5.03
2023-01-02T04:35:22.879Z,5.15
2023-01-02T04:37:49.541Z,4.90
2023-01-02T04:40:24.411Z,5.28
2023-01-02T04:42:51.062Z,4.75
2023-01-02T04:45:17.733Z,5.20
2023-01-02T04:47:44.367Z,5.53
2023-01-02T04:50:11.105Z,4.70
2023-01-02T04:52:37.824Z,5.28
2023-01-02T04:55:06.221Z,5.00
2023-01-02T04:57:32.863Z,5.00
2023-01-02T04:59:59.465Z,5.53
2023-01-02T05:02:26.132Z,6.07
2023-01-02T05:04:52.812Z,5.10
2023-01-02T05:07:19.489Z,5.30
2023-01-02T05:09:46.079Z,5.50
2023-01-02T05:12:12.720Z,5.75
2023-01-02T05:14:39.323Z,5.20
2023-01-02T05:17:05.958Z,5.07
2023-01-02T05:19:32.569Z,5.65
2023-01-02T05:22:19.086Z,6.28
2023-01-02T05:24:45.775Z,5.57
2023-01-02T05:27:12.366Z,5.65
2023-01-02T05:29:38.973Z,6.22
2023-01-02T05:32:05.716Z,6.03
2023-01-02T05:34:32.330Z,4.95
2023-01-02T05:36:58.969Z,5.82
2023-01-02T05:39:25.574Z,5.93
2023-01-02T05:41:52.159Z,6.15
2023-01-02T05:44:18.747Z,6.20
2023-01-02T05:46:45.503Z,5.10
2023-01-02T05:49:12.756Z,5.05
2023-01-02T05:51:39.413Z,5.07
2023-01-02T05:54:06.238Z,6.80
2023-01-02T05:56:32.882Z,5.43
2023-01-02T05:58:59.477Z,5.90
2023-01-02T06:01:27.931Z,6.60
2023-01-02T06:03:56.352Z,5.63
2023-01-02T06:06:24.775Z,6.10
2023-01-02T06:08:51.580Z,6.82
2023-01-02T06:11:18.254Z,5.97
2023-01-02T06:13:44.925Z,5.65
2023-01-02T06:16:11.902Z,7.32
2023-01-02T06:18:38.910Z,7.07
2023-01-02T06:21:10.154Z,6.72
2023-01-02T06:23:36.971Z,6.28
2023-01-02T06:26:08.271Z,6.57
2023-01-02T06:28:34.908Z,7.53
2023-01-02T06:31:02.452Z,7.15
2023-01-02T06:33:29.520Z,7.22
2023-01-02T06:36:00.244Z,7.30
2023-01-02T06:38:27.052Z,6.55
2023-01-02T06:40:54.871Z,7.32
2023-01-02T06:43:21.543Z,7.35
2023-01-02T06:45:48.279Z,6.80
2023-01-02T06:48:16.007Z,7.07
2023-01-02T06:50:43.485Z,7.15
2023-01-02T06:53:10.264Z,7.30
2023-01-02T06:55:36.863Z,8.25
2023-01-02T06:58:10.050Z,11.90
2023-01-02T07:00:39.061Z,10.23
2023-01-02T07:03:05.748Z,7.95
2023-01-02T07:05:32.331Z,8.32
2023-01-02T07:07:59.024Z,9.13
2023-01-02T07:10:25.587Z,8.80
2023-01-02T07:12:52.155Z,7.35
2023-01-02T07:15:18.755Z,7.85
2023-01-02T07:17:45.452Z,9.15
2023-01-02T07:20:12.108Z,9.20
2023-01-02T07:22:38.717Z,8.57
2023-01-02T07:25:05.894Z,5.70
2023-01-02T07:27:32.609Z,4.10
2023-01-02T07:29:59.263Z,4.43
2023-01-02T07:32:27.811Z,3.95
2023-01-02T07:34:54.586Z,4.10
2023-01-02T07:37:21.247Z,5.10
2023-01-02T07:39:47.834Z,5.43
2023-01-02T07:42:14.437Z,4.20
2023-01-02T07:44:42.058Z,4.57
2023-01-02T07:47:08.802Z,5.32
2023-01-02T07:49:35.468Z,4.40
2023-01-02T07:52:02.155Z,4.28
2023-01-02T07:54:28.776Z,4.78
2023-01-02T07:56:55.391Z,4.05
2023-01-02T07:59:22.035Z,4.65
2023-01-02T08:01:48.821Z,5.03
2023-01-02T08:04:15.604Z,4.50
2023-01-02T08:06:42.238Z,4.57
2023-01-02T08:09:08.927Z,5.47
2023-01-02T08:11:35.649Z,3.90
2023-01-02T08:14:02.251Z,4.75
2023-01-02T08:16:28.819Z,5.28
2023-01-02T08:18:55.970Z,4.25
2023-01-02T08:21:23.711Z,4.55
2023-01-02T08:23:50.301Z,4.95
2023-01-02T08:26:16.993Z,4.78
2023-01-02T08:28:43.755Z,4.82
2023-01-02T08:31:15.238Z,4.72
2023-01-02T08:33:41.938Z,5.80
2023-01-02T08:36:09.201Z,4.53
2023-01-02T08:38:35.840Z,4.60
2023-01-02T08:41:02.720Z,4.53
2023-01-02T08:43:29.454Z,6.38
2023-01-02T08:45:56.169Z,5.68
2023-01-02T08:48:22.796Z,5.53
2023-01-02T08:50:50.076Z,4.95
2023-01-02T08:53:17.139Z,4.30
2023-01-02T08:55:43.726Z,4.15
2023-01-02T08:58:10.761Z,4.07
2023-01-02T09:00:37.358Z,4.18
2023-01-02T09:03:04.211Z,4.82
2023-01-02T09:05:30.975Z,3.70
2023-01-02T09:07:58.413Z,4.07
2023-01-02T09:10:25.261Z,4.07
2023-01-02T09:12:51.984Z,5.60
2023-01-02T09:15:18.678Z,4.50
2023-01-02T09:17:45.286Z,4.38
2023-01-02T09:20:11.963Z,6.57
2023-01-02T09:22:38.561Z,5.75
2023-01-02T09:25:05.704Z,6.60
2023-01-02T09:27:32.303Z,4.13
2023-01-02T09:29:58.916Z,5.88
2023-01-02T09:32:25.534Z,4.55
2023-01-02T09:34:52.090Z,4.07
2023-01-02T09:37:18.755Z,4.15
2023-01-02T09:39:45.445Z,4.20
2023-01-02T09:42:14.448Z,6.70
2023-01-02T09:44:52.732Z,6.53
2023-01-02T09:47:21.793Z,4.88
2023-01-02T09:49:51.820Z,4.50
2023-01-02T09:52:28.183Z,7.55
2023-01-02T09:54:54.775Z,4.40
2023-01-02T09:57:34.872Z,4.18
2023-01-02T10:00:06.807Z,3.90
2023-01-02T10:03:08.708Z,4.75
2023-01-02T10:05:58.790Z,3.80
2023-01-02T10:08:49.004Z,4.07
2023-01-02T10:14:40.214Z,6.32
2023-01-02T10:17:10.510Z,5.82
2023-01-02T10:20:23.634Z,6.40
2023-01-02T10:22:52.911Z,6.68
2023-01-02T10:25:23.014Z,5.47
2023-01-02T10:27:54.360Z,5.15
2023-01-02T10:30:24.686Z,4.70
2023-01-02T10:33:12.430Z,5.30
2023-01-02T10:35:43.911Z,5.03
2023-01-02T10:38:12.134Z,4.95
2023-01-02T10:40:38.746Z,4.30
2023-01-02T10:43:05.412Z,5.40
2023-01-02T10:45:52.286Z,6.30
2023-01-02T10:48:20.359Z,3.65
2023-01-02T10:50:48.840Z,4.20
2023-01-02T10:53:37.099Z,4.50
2023-01-02T10:56:04.814Z,3.28
2023-01-02T10:58:33.112Z,4.35
2023-01-02T11:01:08.486Z,4.28
2023-01-02T11:03:35.249Z,3.53
2023-01-02T11:06:27.036Z,2.90
2023-01-02T11:09:20.688Z,4.60
2023-01-02T11:11:49.973Z,4.68
2023-01-02T11:14:16.623Z,3.42
2023-01-02T11:16:43.936Z,3.40
2023-01-02T11:19:29.616Z,3.55
2023-01-02T11:21:56.547Z,2.40
2023-01-02T11:24:26.995Z,2.47
2023-01-02T11:26:53.969Z,3.85
2023-01-02T11:29:35.885Z,2.13
2023-01-02T11:32:02.951Z,2.63
2023-01-02T11:34:34.228Z,2.00
2023-01-02T11:37:17.286Z,2.55
2023-01-02T11:39:56.531Z,2.53
2023-01-02T11:42:47.009Z,1.63
2023-01-02T11:45:17.616Z,1.75
2023-01-02T11:47:49.929Z,1.85
2023-01-02T11:50:22.140Z,3.28
2023-01-02T11:53:01.756Z,2.10
2023-01-02T11:55:49.749Z,1.95
2023-01-02T12:00:56.418Z,1.73
2023-01-02T12:03:24.497Z,2.45
2023-01-02T12:06:15.739Z,1.98
2023-01-02T12:09:08.512Z,2.05
2023-01-02T12:11:45.490Z,2.00
2023-01-02T12:14:19.274Z,1.23
2023-01-02T12:16:55.958Z,1.75
2023-01-02T12:19:37.135Z,1.83
2023-01-02T12:22:43.675Z,1.83
2023-01-02T12:25:34.901Z,1.50
2023-01-02T12:28:41.431Z,1.90
2023-01-02T12:34:33.330Z,2.88
2023-01-02T12:37:23.033Z,2.33
2023-01-02T12:43:32.306Z,1.30
2023-01-02T12:46:30.037Z,1.90
2023-01-02T12:49:28.433Z,1.85
2023-01-02T12:55:25.114Z,1.65
2023-01-02T12:58:14.543Z,1.65
2023-01-02T13:01:01.639Z,2.70
2023-01-02T13:04:05.218Z,1.58
2023-01-02T13:06:45.549Z,1.40
2023-01-02T13:09:35.729Z,2.47
2023-01-02T13:12:15.089Z,1.75
2023-01-02T13:14:46.095Z,2.10
2023-01-02T13:17:36.523Z,1.70
2023-01-02T13:20:42.082Z,1.75
2023-01-02T13:23:31.240Z,1.55
2023-01-02T13:26:05.752Z,2.97
2023-01-02T13:28:33.796Z,1.48
2023-01-02T13:31:44.099Z,2.28
2023-01-02T13:33:51.143Z,1.33
2023-01-02T13:36:38.347Z,1.38
2023-01-02T13:39:16.181Z,1.38
2023-01-02T13:42:22.714Z,1.35
2023-01-02T13:44:51.123Z,1.33
2023-01-02T13:47:31.866Z,1.65
2023-01-02T13:53:01.389Z,1.40
2023-01-02T13:55:31.387Z,1.10
2023-01-02T13:58:22.548Z,1.70
2023-01-02T14:00:55.068Z,1.45
2023-01-02T14:06:04.595Z,2.05
2023-01-02T14:08:39.644Z,1.83
2023-01-02T14:13:46.140Z,2.50
2023-01-02T14:16:36.635Z,2.85
2023-01-02T14:19:20.925Z,2.72
2023-01-02T14:21:53.972Z,3.70
2023-01-02T14:24:49.367Z,2.42
2023-01-02T14:37:50.275Z,3.67
2023-01-02T14:43:19.357Z,3.47
2023-01-02T14:45:50.587Z,2.80
2023-01-02T14:48:21.084Z,2.75
2023-01-02T14:50:50.619Z,4.18
2023-01-02T14:53:21.592Z,3.80
2023-01-02T14:55:48.283Z,2.72
2023-01-02T14:58:20.571Z,3.30
2023-01-02T15:00:47.348Z,2.50
2023-01-02T15:03:23.509Z,1.90
2023-01-02T15:05:54.689Z,1.52
2023-01-02T15:08:23.002Z,1.70
2023-01-02T15:11:20.068Z,2.20
2023-01-02T15:14:05.604Z,2.33
2023-01-02T15:16:33.963Z,2.28
2023-01-02T15:19:00.658Z,2.28
2023-01-02T15:21:29.417Z,1.70
2023-01-02T15:23:56.997Z,2.05
2023-01-02T15:26:31.279Z,2.03
2023-01-02T15:29:02.004Z,2.47
2023-01-02T15:31:28.676Z,2.90
2023-01-02T15:33:56.836Z,2.63
2023-01-02T15:36:32.933Z,2.53
2023-01-02T15:39:17.761Z,3.10
2023-01-02T15:41:46.482Z,2.67
2023-01-02T15:44:33.096Z,2.10
2023-01-02T15:46:59.791Z,2.63
2023-01-02T15:49:26.394Z,1.80
2023-01-02T15:51:54.946Z,2.42
2023-01-02T15:54:21.574Z,2.92
2023-01-02T15:56:49.143Z,2.55
2023-01-02T15:59:34.751Z,2.47
2023-01-02T16:02:03.194Z,1.80
2023-01-02T16:04:31.675Z,1.98
2023-01-02T16:06:59.195Z,1.35
2023-01-02T16:09:28.485Z,2.47
2023-01-02T16:11:57.277Z,1.80
2023-01-02T16:14:32.677Z,1.95
2023-01-02T16:17:04.560Z,2.10
2023-01-02T16:24:50.408Z,2.33
2023-01-02T16:27:33.958Z,2.83
2023-01-02T16:30:00.581Z,3.05
2023-01-02T16:32:29.451Z,2.10
2023-01-02T16:37:52.825Z,3.10
2023-01-02T16:43:03.580Z,2.50
2023-01-02T16:45:30.499Z,3.25
2023-01-02T16:47:57.208Z,2.53
2023-01-02T16:50:24.555Z,2.42
2023-01-02T16:52:51.423Z,2.90
2023-01-02T16:55:20.668Z,2.53
2023-01-02T16:57:47.907Z,2.83
2023-01-02T17:00:14.999Z,2.83
2023-01-02T17:02:41.748Z,2.47
2023-01-02T17:05:32.173Z,2.63
2023-01-02T17:07:58.844Z,2.80
2023-01-02T17:10:26.108Z,3.90
2023-01-02T17:12:52.781Z,2.92
2023-01-02T17:15:19.373Z,2.47
2023-01-02T17:17:46.129Z,3.50
2023-01-02T17:20:13.492Z,2.88
2023-01-02T17:22:40.316Z,3.67
2023-01-02T17:25:08.074Z,3.38
2023-01-02T17:27:34.816Z,3.70
2023-01-02T17:30:03.105Z,3.28
2023-01-02T17:32:30.561Z,3.40
2023-01-02T17:34:57.243Z,2.78
2023-01-02T17:37:24.745Z,2.90
2023-01-02T17:39:52.184Z,2.70
2023-01-02T17:42:18.862Z,2.95
2023-01-02T17:44:45.646Z,2.67
2023-01-02T17:49:58.920Z,2.03
2023-01-02T17:52:25.548Z,3.80
2023-01-02T17:54:56.578Z,2.53
2023-01-02T17:57:23.886Z,2.28
2023-01-02T17:59:51.169Z,2.20
2023-01-02T18:02:19.442Z,3.30
2023-01-02T18:04:52.791Z,3.20
2023-01-02T18:07:21.336Z,2.60
2023-01-02T18:10:09.243Z,4.05
2023-01-02T18:12:36.205Z,2.67
2023-01-02T18:15:12.995Z,2.97
2023-01-02T18:17:39.850Z,2.90
2023-01-02T18:20:11.366Z,2.67
2023-01-02T18:22:42.419Z,2.38
2023-01-02T18:25:19.198Z,2.38
2023-01-02T18:27:46.371Z,3.20
2023-01-02T18:32:56.951Z,3.13
2023-01-02T18:38:18.089Z,2.80
2023-01-02T18:40:44.817Z,3.25
2023-01-02T18:43:19.011Z,2.72
2023-01-02T18:45:49.086Z,4.22
2023-01-02T18:48:18.369Z,2.92
2023-01-02T18:50:46.671Z,3.00
2023-01-02T18:53:17.185Z,4.15
2023-01-02T18:55:44.001Z,3.42
2023-01-02T18:58:51.271Z,2.75
2023-01-02T19:01:44.785Z,3.92
2023-01-02T19:04:24.424Z,4.55
2023-01-02T19:06:57.642Z,2.85
2023-01-02T19:09:31.563Z,2.53
2023-01-02T19:12:22.570Z,2.85
2023-01-02T19:14:49.417Z,2.40
2023-01-02T19:17:22.751Z,3.10
2023-01-02T19:19:49.628Z,2.85
2023-01-02T19:22:17.977Z,3.38
2023-01-02T19:24:44.838Z,2.55
2023-01-02T19:27:35.885Z,2.40
2023-01-02T19:30:06.774Z,3.22
2023-01-02T19:32:34.055Z,3.00
2023-01-02T19:35:39.212Z,3.53
2023-01-02T19:38:22.010Z,3.25
2023-01-02T19:40:48.643Z,3.05
2023-01-02T19:43:15.269Z,2.80
2023-01-02T19:45:41.933Z,4.50
2023-01-02T19:48:10.619Z,3.22
2023-01-02T19:50:40.316Z,2.72
2023-01-02T19:53:07.046Z,3.38
2023-01-02T19:55:33.773Z,3.78
2023-01-02T19:58:00.327Z,2.95
2023-01-02T20:00:26.931Z,3.65
2023-01-02T20:02:53.767Z,3.90
2023-01-02T20:05:22.555Z,3.67
2023-01-02T20:07:50.477Z,3.72
2023-01-02T20:10:17.199Z,4.10
2023-01-02T20:12:44.645Z,3.78
2023-01-02T20:15:14.747Z,3.50
2023-01-02T20:17:41.637Z,4.55
2023-01-02T20:20:11.087Z,4.07
2023-01-02T20:22:37.753Z,3.50
2023-01-02T20:25:04.855Z,4.75
2023-01-02T20:27:31.448Z,3.60
2023-01-02T20:29:58.062Z,2.80
2023-01-02T20:32:24.759Z,2.95
2023-01-02T20:34:51.875Z,3.15
2023-01-02T20:37:21.608Z,4.57
2023-01-02T20:39:49.817Z,3.28
2023-01-02T20:42:16.743Z,2.95
2023-01-02T20:44:43.578Z,3.63
2023-01-02T20:47:11.772Z,2.70
2023-01-02T20:49:39.268Z,3.65
2023-01-02T20:52:06.262Z,3.42
2023-01-02T20:54:32.850Z,3.70
2023-01-02T20:56:59.547Z,2.90
2023-01-02T20:59:26.145Z,2.20
2023-01-02T21:01:52.857Z,4.57
2023-01-02T21:04:24.739Z,3.92
2023-01-02T21:06:55.998Z,3.15
2023-01-02T21:09:22.636Z,3.50
2023-01-02T21:11:49.273Z,2.47
2023-01-02T21:14:15.883Z,3.22
2023-01-02T21:16:42.542Z,3.10
2023-01-02T21:19:09.214Z,3.20
2023-01-02T21:21:35.953Z,3.17
2023-01-02T21:24:02.618Z,3.13
2023-01-02T21:26:29.195Z,3.20
2023-01-02T21:28:55.831Z,3.00
2023-01-02T21:31:22.600Z,3.35
2023-01-02T21:33:50.156Z,2.78
2023-01-02T21:36:16.793Z,2.38
2023-01-02T21:38:43.652Z,3.35
2023-01-02T21:41:30.492Z,2.40
2023-01-02T21:43:57.230Z,2.65
2023-01-02T21:46:23.943Z,3.53
2023-01-02T21:48:50.663Z,2.47
2023-01-02T21:51:17.277Z,2.55
2023-01-02T21:53:43.970Z,3.17
2023-01-02T21:56:10.619Z,2.60
2023-01-02T21:58:37.291Z,3.55
2023-01-02T22:01:04.204Z,3.05
2023-01-02T22:03:30.911Z,3.15
2023-01-02T22:05:57.567Z,2.03
2023-01-02T22:08:24.283Z,2.67
2023-01-02T22:10:51.126Z,2.38
2023-01-02T22:13:17.833Z,2.60
2023-01-02T22:15:45.633Z,2.25
2023-01-02T22:18:12.641Z,2.47
2023-01-02T22:20:39.339Z,2.90
2023-01-02T22:23:05.989Z,2.75
2023-01-02T22:25:32.663Z,2.95
2023-01-02T22:27:59.344Z,2.38
2023-01-02T22:30:33.644Z,2.30
2023-01-02T22:33:01.372Z,4.38
2023-01-02T22:35:28.026Z,2.15
2023-01-02T22:37:55.211Z,3.20
2023-01-02T22:40:21.781Z,2.17
2023-01-02T22:43:04.290Z,2.83
2023-01-02T22:45:36.832Z,2.60
2023-01-02T22:48:05.675Z,2.47
2023-01-02T22:50:40.261Z,4.63
2023-01-02T22:53:10.162Z,2.08
2023-01-02T22:55:36.759Z,2.30
2023-01-02T22:58:03.435Z,3.33
2023-01-02T23:00:30.049Z,2.45
2023-01-02T23:02:57.120Z,1.98
2023-01-02T23:05:23.737Z,2.50
2023-01-02T23:07:50.559Z,2.03
2023-01-02T23:10:17.301Z,2.25
2023-01-02T23:12:43.937Z,1.98
2023-01-02T23:15:12.473Z,2.38
2023-01-02T23:17:59.338Z,2.55
2023-01-02T23:20:26.210Z,2.00
2023-01-02T23:22:52.902Z,2.38
2023-01-02T23:25:19.556Z,3.15
2023-01-02T23:27:46.246Z,2.60
2023-01-02T23:30:13.033Z,1.90
2023-01-02T23:32:39.630Z,1.85
2023-01-02T23:35:06.973Z,2.40
2023-01-02T23:37:33.605Z,1.70
2023-01-02T23:40:00.216Z,1.83
2023-01-02T23:42:26.813Z,1.75
2023-01-02T23:44:53.432Z,2.13
2023-01-02T23:47:20.024Z,1.73
2023-01-02T23:49:46.701Z,1.85
2023-01-02T23:52:13.705Z,1.60
2023-01-02T23:54:40.329Z,3.20
2023-01-02T23:57:06.944Z,1.73
2023-01-02T23:59:33.595Z,2.45
